createdAt,value
2023-04-02T00:00:07.003Z,99214
2023-04-02T00:10:07.882Z,99226
2023-04-02T00:20:08.772Z,99227
2023-04-02T00:30:09.343Z,99229
2023-04-02T00:40:10.132Z,99243
2023-04-02T00:50:11.057Z,99243
2023-04-02T01:00:11.693Z,99240
2023-04-02T01:10:12.547Z,99241
2023-04-02T01:20:13.321Z,99246
2023-04-02T01:30:14.213Z,99250
2023-04-02T01:40:15.021Z,99254
2023-04-02T01:50:15.837Z,99263
2023-04-02T02:00:16.670Z,99265
2023-04-02T02:10:17.515Z,99267
2023-04-02T02:20:18.358Z,99275
2023-04-02T02:30:19.154Z,99277
2023-04-02T02:40:21.216Z,99278
2023-04-02T02:50:20.835Z,99282
2023-04-02T03:00:21.824Z,99276
2023-04-02T03:10:22.756Z,99278
2023-04-02T03:20:23.453Z,99291
2023-04-02T03:30:24.212Z,99278
2023-04-02T03:40:25.038Z,99284
2023-04-02T03:50:25.932Z,99290
2023-04-02T04:10:27.750Z,99305
2023-04-02T04:20:28.670Z,99315
2023-04-02T04:30:29.556Z,99313
2023-04-02T04:40:30.700Z,99321
2023-04-02T04:50:31.343Z,99328
2023-04-02T05:00:32.113Z,99325
2023-04-02T05:10:33.421Z,99328
2023-04-02T05:20:33.775Z,99332
2023-04-02T05:30:34.620Z,99346
2023-04-02T05:40:35.519Z,99352
2023-04-02T06:00:37.285Z,99366
2023-04-02T06:10:38.464Z,99369
2023-04-02T06:20:39.354Z,99372
2023-04-02T06:30:40.285Z,99377
2023-04-02T06:40:41.082Z,99389
2023-04-02T06:50:42.166Z,99394
2023-04-02T07:00:43.126Z,99402
2023-04-02T07:10:45.422Z,99402
2023-04-02T07:20:45.278Z,99415
2023-04-02T07:30:47.776Z,99412
2023-04-02T07:40:47.536Z,99424
2023-04-02T07:50:48.623Z,99438
2023-04-02T08:00:49.729Z,99444
2023-04-02T08:10:51.007Z,99453
2023-04-02T08:20:52.208Z,99455
2023-04-02T08:30:53.440Z,99463
2023-04-02T08:40:54.628Z,99469
2023-04-02T08:50:55.554Z,99469
2023-04-02T09:00:56.924Z,99466
2023-04-02T09:10:58.204Z,99480
2023-04-02T09:20:59.546Z,99481
2023-04-02T09:31:01.213Z,99486
2023-04-02T09:41:02.418Z,99500
2023-04-02T09:51:03.910Z,99515
2023-04-02T10:01:05.297Z,99506
2023-04-02T10:11:06.332Z,99517
2023-04-02T10:21:07.665Z,99515
2023-04-02T10:31:09.057Z,99512
2023-04-02T10:41:10.528Z,99507
2023-04-02T10:51:12.925Z,99506
2023-04-02T11:01:12.915Z,99498
2023-04-02T11:21:15.559Z,99500
2023-04-02T11:31:17.036Z,99493
2023-04-02T11:41:18.312Z,99487
2023-04-02T11:51:21.238Z,99477
2023-04-02T12:01:21.197Z,99482
2023-04-02T12:11:22.582Z,99466
2023-04-02T12:21:23.825Z,99466
2023-04-02T12:31:25.090Z,99465
2023-04-02T12:51:28.853Z,99451
2023-04-02T13:01:29.187Z,99453
2023-04-02T13:11:30.446Z,99453
2023-04-02T13:21:31.888Z,99456
2023-04-02T13:31:33.620Z,99445
2023-04-02T13:41:34.736Z,99451
2023-04-02T13:51:35.869Z,99451
2023-04-02T14:11:39.778Z,99442
2023-04-02T14:21:39.996Z,99448
2023-04-02T14:31:41.402Z,99460
2023-04-02T14:41:42.705Z,99505
2023-04-02T14:51:43.968Z,99534
2023-04-02T15:01:45.222Z,99550
2023-04-02T15:11:46.593Z,99562
2023-04-02T15:21:57.499Z,99578
2023-04-02T15:31:48.767Z,99583
2023-04-02T15:41:50.113Z,99572
2023-04-02T15:51:53.872Z,99568
2023-04-02T16:01:52.452Z,99575
2023-04-02T16:11:53.168Z,99583
2023-04-02T16:21:54.425Z,99612
2023-04-02T16:31:55.415Z,99619
2023-04-02T16:41:56.676Z,99623
2023-04-02T16:51:58.714Z,99632
2023-04-02T17:01:58.584Z,99648
2023-04-02T17:12:00.523Z,99655
2023-04-02T17:22:02.127Z,99664
2023-04-02T17:32:02.028Z,99676
2023-04-02T17:42:02.754Z,99693
2023-04-02T17:52:03.855Z,99703
2023-04-02T18:12:06.027Z,99739
2023-04-02T18:22:06.660Z,99759
2023-04-02T18:32:07.753Z,99779
2023-04-02T18:42:08.962Z,99799
2023-04-02T18:52:10.616Z,99821
2023-04-02T19:02:10.839Z,99836
2023-04-02T19:12:11.560Z,99847
2023-04-02T19:32:13.486Z,99861
2023-04-02T19:42:14.277Z,99873
2023-04-02T19:52:15.214Z,99893
2023-04-02T20:02:17.963Z,99909
2023-04-02T20:12:17.118Z,99915
2023-04-02T20:22:18.082Z,99936
2023-04-02T20:32:20.395Z,99952
2023-04-02T20:42:19.623Z,99967
2023-04-02T20:52:21.884Z,99979
2023-04-02T21:02:21.290Z,99998
2023-04-02T21:12:22.174Z,100019
2023-04-02T21:22:22.979Z,100031
2023-04-02T21:32:23.965Z,100047
2023-04-02T21:42:24.567Z,100059
2023-04-02T21:52:25.692Z,100061
2023-04-02T22:02:27.243Z,100073
2023-04-02T22:12:26.954Z,100081
2023-04-02T22:22:29.255Z,100081
2023-04-02T22:42:30.669Z,100093
2023-04-02T22:52:30.036Z,100106
2023-04-02T23:02:31.002Z,100113
2023-04-02T23:22:32.254Z,100125
2023-04-02T23:32:33.151Z,100130
2023-04-02T23:42:33.770Z,100131
